Latest Coastal Weather Observations for Robe Airport

IDS60701

Issued at 12:02 am CST Saturday 23 May 2015 (issued every 10 minutes, with the page automatically refreshed every 10 minutes)

About coastal observations | Map of coastal stations | Coastal observations for SA | Marine services | Other Formats
Station Details ID: 026105 Name: ROBE AIRFIELD Lat: -37.18 Lon: 139.81 Height: 3.0 m
Data from the previous 72 hours. | See also: Recent months at Robe Airport
Date/Time
CST
Temp

°C
Wind Pressure Rain
since 9am
mm
Weather Cloud Vis
km
Sea
Height
m
Swell
Dir
 
Speed
knots
Gust
knots
hPa Trend Height
m
Period
s
Dir
23/12:00am 10.3 ESE 5 8 1033.3 - 0.0 - - - - - - -
 
Date/Time
CST
Temp

°C
Wind Pressure Rain
since 9am
mm
Weather Cloud Vis
km
Sea
Height
m
Swell
Dir
 
Speed
knots
Gust
knots
hPa Trend Height
m
Period
s
Dir
22/11:30pm 10.2 ESE 4 6 1033.2 - 0.0 - - - - - - -
22/11:00pm 10.3 E 5 7 1033.0 - 0.0 - - - - - - -
22/10:30pm 10.5 SE 7 10 1033.0 - 0.0 - - - - - - -
22/10:00pm 10.6 SE 8 12 1033.2 - 0.0 - - - - - - -
22/09:30pm 10.6 SE 7 12 1033.1 - 0.0 - - - - - - -
22/09:00pm 10.8 ESE 6 9 1033.1 - 0.0 - - - - - - -
22/08:30pm 10.9 SE 9 14 1032.9 - 0.0 - - - - - - -
22/08:00pm 11.0 ESE 7 11 1032.9 - 0.0 - - - - - - -
22/07:30pm 11.1 ESE 9 13 1032.9 - 0.0 - - - - - - -
22/07:00pm 11.2 ESE 8 13 1032.8 - 0.0 - - - - - - -
22/06:30pm 11.3 ESE 6 9 1032.7 - 0.0 - - - - - - -
22/06:00pm 11.5 ESE 8 11 1032.7 - 0.0 - - - - - - -
22/05:30pm 11.4 ESE 6 10 1032.5 - 0.0 - - - - - - -
22/05:00pm 11.7 ESE 6 8 1032.5 - 0.0 - - - - - - -
22/04:30pm 12.0 SE 9 13 1032.3 - 0.0 - - - - - - -
22/04:00pm 12.2 SE 9 13 1032.4 - 0.0 - - - - - - -
22/03:30pm 12.4 SSE 9 13 1032.3 - 0.0 - - - - - - -
22/03:00pm 12.7 SSE 8 12 1032.0 - 0.0 - - - - - - -
22/02:30pm 12.7 SSE 10 16 1032.0 - 0.0 - - - - - - -
22/02:00pm 13.0 SSE 10 15 1032.0 - 0.0 - - - - - - -
22/01:30pm 13.0 SE 8 12 1031.9 - 0.0 - - - - - - -
22/01:00pm 13.2 SSE 9 14 1032.0 - 0.0 - - - - - - -
22/12:30pm 13.4 SE 9 15 1032.1 - 0.0 - - - - - - -
22/12:00pm 13.9 SE 10 15 1032.3 - 0.0 - - - - - - -
22/11:30am 13.5 SE 10 15 1032.8 - 0.0 - - - - - - -
22/11:00am 13.8 SE 10 14 1033.0 - 0.0 - - - - - - -
22/10:30am 12.7 SE 9 14 1033.1 - 0.0 - - - - - - -
22/10:00am 12.6 SE 9 14 1033.1 - 0.0 - - - - - - -
22/09:30am 12.5 SE 6 9 1032.7 - 0.0 - - - - - - -
22/09:00am 12.0 SE 5 8 1032.4 - 1.4 - - - - - - -
22/08:30am 11.3 SE 4 6 1032.3 - 1.4 - - - - - - -
22/08:00am 10.9 SSE 5 6 1032.0 - 1.4 - - - - - - -
22/07:30am 10.6 SSE 5 7 1031.7 - 1.4 - - - - - - -
22/07:00am 10.2 SSE 3 5 1031.4 - 1.4 - - - - - - -
22/06:30am 10.7 SE 7 9 1031.2 - 1.4 - - - - - - -
22/06:00am 10.6 SE 6 9 1030.8 - 1.4 - - - - - - -
22/05:30am 10.6 SSE 5 8 1030.5 - 1.4 - - - - - - -
22/05:00am 10.8 SSE 6 9 1030.3 - 1.4 - - - - - - -
22/04:30am 10.5 SSE 5 6 1030.1 - 1.4 - - - - - - -
22/04:00am 10.5 SSE 4 7 1030.1 - 1.4 - - - - - - -
22/03:30am 10.4 SSE 4 5 1030.2 - 1.4 - - - - - - -
22/03:00am 10.1 SE 4 6 1030.0 - 1.4 - - - - - - -
22/02:30am 10.4 SSE 5 8 1030.1 - 1.4 - - - - - - -
22/02:00am 10.2 SE 5 7 1030.1 - 1.4 - - - - - - -
22/01:30am 9.9 SSE 4 6 1029.9 - 1.4 - - - - - - -
22/01:00am 9.8 SSE 4 6 1029.7 - 1.4 - - - - - - -
22/12:30am 9.1 SSE 5 10 1029.9 - 1.4 - - - - - - -
22/12:00am 9.5 SE 4 7 1029.9 - 1.4 Recent precip. - - - - - -
 
Date/Time
CST
Temp

°C
Wind Pressure Rain
since 9am
mm
Weather Cloud Vis
km
Sea
Height
m
Swell
Dir
 
Speed
knots
Gust
knots
hPa Trend Height
m
Period
s
Dir
21/11:30pm 8.8 SSE 2 4 1030.0 - 1.4 - - - - - - -
21/11:00pm 9.3 SE 3 4 1029.9 - 1.2 - - - - - - -
21/10:30pm 9.1 SE 3 5 1029.8 - 1.2 - - - - - - -
21/10:00pm 10.0 SSE 5 7 1029.7 - 1.2 - - - - - - -
21/09:30pm 10.1 SSE 5 7 1029.7 - 1.2 - - - - - - -
21/09:00pm 10.4 SSE 6 8 1029.6 - 1.2 - - - - - - -
21/08:30pm 10.6 SSE 5 8 1029.4 - 1.2 - - - - - - -
21/08:00pm 10.8 SSE 4 8 1029.2 - 1.2 - - - - - - -
21/07:30pm 10.7 SE 5 8 1028.9 - 1.2 - - - - - - -
21/07:00pm 10.6 SE 4 6 1028.6 - 1.2 - - - - - - -
21/06:30pm 10.7 SE 5 6 1028.4 - 1.2 - - - - - - -
21/06:00pm 11.0 SSE 6 9 1028.2 - 1.2 - - - - - - -
21/05:30pm 10.9 SSE 6 8 1027.7 - 1.2 - - - - - - -
21/05:00pm 11.4 SSE 7 12 1027.5 - 1.2 - - - - - - -
21/04:30pm 11.6 SSE 8 13 1027.4 - 1.2 - - - - - - -
21/04:00pm 12.8 S 9 11 1027.2 - 1.2 - - - - - - -
21/03:30pm 13.5 S 11 13 1026.9 - 1.2 - - - - - - -
21/03:00pm 13.4 S 10 13 1026.8 - 1.2 - - - - - - -
21/02:30pm 13.8 SSW 9 13 1026.7 - 1.2 - - - - - - -
21/02:00pm 13.7 S 11 13 1026.5 - 1.2 - - - - - - -
21/01:30pm 13.7 S 6 9 1026.7 - 1.2 - - - - - - -
21/01:00pm 12.7 SSE 5 8 1026.8 - 1.2 - - - - - - -
21/12:30pm 11.9 SSE 6 10 1027.2 - 1.0 - - - - - - -
21/12:00pm 12.0 SSE 7 11 1027.3 - 0.4 Recent precip. - - - - - -
21/11:30am 12.9 SSE 4 7 1027.6 - 0.4 - - - - - - -
21/11:00am 11.4 SE 4 6 1028.0 - 0.2 - - - - - - -
21/10:30am 11.4 SE 6 9 1027.9 - 0.2 - - - - - - -
21/10:00am 11.2 ESE 3 5 1027.6 - 0.2 - - - - - - -
21/09:30am 11.1 E 4 6 1027.6 - 0.2 - - - - - - -
21/09:00am 11.2 SSE 2 3 1027.1 - 1.8 Recent precip. - - - - - -
21/08:30am 10.2 ENE 2 3 1026.9 - 1.8 - - - - - - -
21/08:00am 8.4 ENE 3 4 1026.8 - 1.6 - - - - - - -
21/07:30am 8.5 E 2 4 1026.3 - 1.6 - - - - - - -
21/07:00am 9.4 S 7 9 1026.1 - 1.6 - - - - - - -
21/06:30am 9.0 SE 4 7 1025.8 - 1.6 - - - - - - -
21/06:00am 8.3 E 1 1 1025.3 - 1.6 - - - - - - -
21/05:30am 9.4 ESE 4 7 1025.1 - 1.6 - - - - - - -
21/05:00am 9.8 SSW 5 12 1025.0 - 1.6 - - - - - - -
21/04:30am 9.9 S 9 18 1024.8 - 1.6 - - - - - - -
21/04:00am 9.4 S 4 5 1024.5 - 1.6 - - - - - - -
21/03:30am 9.3 S 11 17 1024.7 - 1.6 - - - - - - -
21/03:00am 9.8 S 2 8 1024.5 - 1.6 - - - - - - -
21/02:30am 9.9 SSE 5 6 1024.5 - 1.6 - - - - - - -
21/02:00am 9.6 SSE 3 6 1024.3 - 1.6 - - - - - - -
21/01:30am 8.9 ESE 1 3 1024.3 - 1.6 - - - - - - -
21/01:00am 8.9 ESE 3 4 1024.4 - 1.6 - - - - - - -
21/12:30am 8.7 ESE 4 6 1024.3 - 1.6 - - - - - - -
21/12:00am 8.9 SE 3 5 1024.1 - 1.6 - - - - - - -
 
Date/Time
CST
Temp

°C
Wind Pressure Rain
since 9am
mm
Weather Cloud Vis
km
Sea
Height
m
Swell
Dir
 
Speed
knots
Gust
knots
hPa Trend Height
m
Period
s
Dir
20/11:30pm 9.7 SSE 5 9 1024.0 - 1.6 - - - - - - -
20/11:00pm 9.9 S 9 13 1023.9 - 1.6 - - - - - - -
20/10:30pm 10.0 SSE 10 14 1023.7 - 1.6 - - - - - - -
20/10:00pm 10.3 SSE 8 11 1023.6 - 1.6 - - - - - - -
20/09:30pm 10.1 S 9 13 1023.5 - 1.6 - - - - - - -
20/09:00pm 9.6 S 7 12 1023.2 - 1.6 - - - - - - -
20/08:30pm 9.7 S 7 10 1023.0 - 1.6 - - - - - - -
20/08:00pm 10.1 S 9 13 1022.7 - 1.6 - - - - - - -
20/07:30pm 9.6 SSE 8 10 1022.5 - 1.6 - - - - - - -
20/07:00pm 10.1 S 11 14 1022.3 - 1.6 - - - - - - -
20/06:30pm 10.4 S 14 20 1022.0 - 1.6 - - - - - - -
20/06:00pm 11.0 S 12 20 1021.4 - 1.6 - - - - - - -
20/05:30pm 11.1 S 11 16 1021.0 - 1.6 - - - - - - -
20/05:00pm 11.3 S 13 18 1020.4 - 1.6 - - - - - - -
20/04:30pm 11.6 S 12 16 1020.2 - 1.6 - - - - - - -
20/04:00pm 11.9 S 14 20 1019.7 - 1.6 - - - - - - -
20/03:30pm 12.1 S 14 20 1019.2 - 1.6 - - - - - - -
20/03:00pm 11.9 S 15 22 1018.9 - 1.6 Recent precip. - - - - - -
20/02:30pm 12.4 S 12 18 1018.4 - 1.4 - - - - - - -
20/02:00pm 11.8 S 17 23 1018.2 - 1.4 - - - - - - -
20/01:30pm 11.9 S 17 22 1018.0 - 1.4 - - - - - - -
20/01:00pm 12.0 S 13 19 1017.8 - 1.4 - - - - - - -
20/12:30pm 12.4 S 14 20 1017.7 - 1.0 - - - - - - -
20/12:00pm 12.7 SSE 12 17 1017.6 - 0.6 - - - - - - -
20/11:30am 12.4 S 14 19 1017.5 - 0.6 - - - - - - -
20/11:00am 13.6 S 15 19 1017.1 - 0.6 - - - - - - -
20/10:30am 12.3 S 12 16 1017.0 - 0.6 - - - - - - -
20/10:00am 12.2 S 13 19 1016.6 - 0.6 - - - - - - -
20/09:30am 11.8 S 15 21 1016.0 - 0.4 - - - - - - -
20/09:00am 11.9 S 16 25 1015.5 - 2.6 - - - - - - -
20/08:30am 12.0 S 15 19 1015.0 - 2.6 - - - - - - -
20/08:00am 11.6 SSW 14 21 1014.4 - 2.6 - - - - - - -
20/07:30am 11.9 SSW 17 23 1013.7 - 2.2 - - - - - - -
20/07:00am 12.0 SW 17 26 1012.9 - 2.0 - - - - - - -
20/06:44am 12.0 SW 17 28 1012.7 - 2.0 - - - - - - -
20/06:30am 12.0 SW 17 25 1012.4 - 1.8 - - - - - - -
20/06:03am 12.2 SW 15 25 1012.2 - 1.4 - - - - - - -
20/06:00am 12.2 SW 16 25 1012.1 - 1.4 Rain - - - - - -
20/05:32am 12.2 SW 17 29 1011.5 - 1.2 - - - - - - -
20/05:30am 12.2 SW 17 27 1011.5 - 1.2 - - - - - - -
20/05:02am 12.1 SW 17 29 1011.2 - 0.8 - - - - - - -
20/05:00am 12.2 SW 17 25 1011.0 - 0.8 - - - - - - -
20/04:30am 12.2 SW 18 30 1010.5 - 0.8 - - - - - - -
20/04:00am 12.5 SW 19 31 1009.8 - 0.8 - - - - - - -
20/03:33am 12.6 SW 18 29 1009.4 - 0.6 - - - - - - -
20/03:30am 12.5 SW 17 26 1009.4 - 0.6 - - - - - - -
20/03:00am 12.5 SW 18 32 1008.8 - 0.6 - - - - - - -
20/02:30am 12.8 SW 18 28 1008.2 - 0.6 - - - - - - -
20/02:12am 12.9 WSW 15 26 1008.0 - 0.6 - - - - - - -
20/02:00am 13.3 WSW 13 23 1007.9 - 0.6 - - - - - - -
20/01:30am 13.5 WSW 13 20 1007.5 - 0.6 - - - - - - -
20/01:00am 13.3 W 14 23 1007.3 - 0.6 - - - - - - -
20/12:33am 13.8 W 15 26 1007.1 - 0.6 - - - - - - -
20/12:30am 13.8 W 15 23 1007.0 - 0.6 - - - - - - -

Other Formats:

Comma delimited format used in spreadsheet applications
http://www.bom.gov.au/fwo/IDS60701/IDS60701.95816.axf

JavaScript Object Notation format (JSON) in row-major order
http://www.bom.gov.au/fwo/IDS60701/IDS60701.95816.json